sensor_id;sensor_type;location;lat;lon;timestamp;pressure;altitude;pressure_sealevel;temperature;humidity
29907;BME280;16776;50.958;10.994;2023-02-13T00:01:54;100631.22;;;5.11;100.00
29907;BME280;16776;50.958;10.994;2023-02-13T00:04:20;100625.16;;;5.07;100.00
29907;BME280;16776;50.958;10.994;2023-02-13T00:06:47;100618.78;;;4.93;100.00
29907;BME280;16776;50.958;10.994;2023-02-13T00:09:14;100624.81;;;4.95;100.00
29907;BME280;16776;50.958;10.994;2023-02-13T00:11:41;100631.59;;;4.94;100.00
29907;BME280;16776;50.958;10.994;2023-02-13T00:14:08;100625.47;;;4.88;100.00
29907;BME280;16776;50.958;10.994;2023-02-13T00:16:35;100616.88;;;4.84;100.00
29907;BME280;16776;50.958;10.994;2023-02-13T00:19:01;100624.41;;;4.81;100.00
29907;BME280;16776;50.958;10.994;2023-02-13T00:21:28;100620.97;;;4.79;100.00
29907;BME280;16776;50.958;10.994;2023-02-13T00:23:55;100619.19;;;4.77;100.00
29907;BME280;16776;50.958;10.994;2023-02-13T00:26:21;100602.56;;;4.61;100.00
29907;BME280;16776;50.958;10.994;2023-02-13T00:28:49;100625.97;;;4.76;100.00
29907;BME280;16776;50.958;10.994;2023-02-13T00:31:18;100620.75;;;4.72;100.00
29907;BME280;16776;50.958;10.994;2023-02-13T00:33:45;100624.88;;;4.68;100.00
29907;BME280;16776;50.958;10.994;2023-02-13T00:36:13;100616.34;;;4.66;100.00
29907;BME280;16776;50.958;10.994;2023-02-13T00:38:41;100623.03;;;4.62;100.00
29907;BME280;16776;50.958;10.994;2023-02-13T00:41:08;100619.56;;;4.60;100.00
29907;BME280;16776;50.958;10.994;2023-02-13T00:43:35;100625.47;;;4.58;100.00
29907;BME280;16776;50.958;10.994;2023-02-13T00:46:04;100618.66;;;4.58;100.00
29907;BME280;16776;50.958;10.994;2023-02-13T00:48:33;100616.00;;;4.55;100.00
29907;BME280;16776;50.958;10.994;2023-02-13T00:51:00;100624.47;;;4.53;100.00
29907;BME280;16776;50.958;10.994;2023-02-13T00:53:27;100626.16;;;4.52;100.00
29907;BME280;16776;50.958;10.994;2023-02-13T00:55:54;100629.50;;;4.51;100.00
29907;BME280;16776;50.958;10.994;2023-02-13T00:58:20;100623.53;;;4.51;100.00
29907;BME280;16776;50.958;10.994;2023-02-13T01:00:47;100627.00;;;4.53;100.00
29907;BME280;16776;50.958;10.994;2023-02-13T01:03:18;100612.28;;;4.44;100.00
29907;BME280;16776;50.958;10.994;2023-02-13T01:05:46;100618.22;;;4.43;100.00
29907;BME280;16776;50.958;10.994;2023-02-13T01:08:13;100623.44;;;4.48;100.00
29907;BME280;16776;50.958;10.994;2023-02-13T01:10:41;100616.66;;;4.48;100.00
29907;BME280;16776;50.958;10.994;2023-02-13T01:13:08;100624.28;;;4.47;100.00
29907;BME280;16776;50.958;10.994;2023-02-13T01:15:35;100620.88;;;4.46;100.00
29907;BME280;16776;50.958;10.994;2023-02-13T01:18:01;100573.16;;;4.15;100.00
29907;BME280;16776;50.958;10.994;2023-02-13T01:20:31;100635.38;;;4.49;100.00
29907;BME280;16776;50.958;10.994;2023-02-13T01:22:58;100634.50;;;4.48;100.00
29907;BME280;16776;50.958;10.994;2023-02-13T01:25:24;100623.41;;;4.46;100.00
29907;BME280;16776;50.958;10.994;2023-02-13T01:27:52;100634.63;;;4.51;100.00
29907;BME280;16776;50.958;10.994;2023-02-13T01:30:19;100634.66;;;4.53;100.00
29907;BME280;16776;50.958;10.994;2023-02-13T01:32:46;100635.44;;;4.50;100.00
29907;BME280;16776;50.958;10.994;2023-02-13T01:35:13;100637.25;;;4.54;100.00
29907;BME280;16776;50.958;10.994;2023-02-13T01:37:42;100634.69;;;4.54;100.00
29907;BME280;16776;50.958;10.994;2023-02-13T01:40:12;100591.41;;;4.29;100.00
29907;BME280;16776;50.958;10.994;2023-02-13T01:42:39;100579.41;;;4.25;100.00
29907;BME280;16776;50.958;10.994;2023-02-13T01:45:18;100632.28;;;4.59;100.00
29907;BME280;16776;50.958;10.994;2023-02-13T01:47:49;100627.00;;;4.53;100.00
29907;BME280;16776;50.958;10.994;2023-02-13T01:50:22;100627.03;;;4.54;100.00
29907;BME280;16776;50.958;10.994;2023-02-13T01:52:53;100631.28;;;4.54;100.00
29907;BME280;16776;50.958;10.994;2023-02-13T01:55:22;100631.16;;;4.49;100.00
29907;BME280;16776;50.958;10.994;2023-02-13T01:57:55;100632.13;;;4.53;100.00
29907;BME280;16776;50.958;10.994;2023-02-13T02:00:24;100626.84;;;4.48;100.00
29907;BME280;16776;50.958;10.994;2023-02-13T02:02:54;100632.00;;;4.50;100.00
29907;BME280;16776;50.958;10.994;2023-02-13T02:05:23;100640.47;;;4.47;100.00
29907;BME280;16776;50.958;10.994;2023-02-13T02:07:53;100633.56;;;4.45;100.00
29907;BME280;16776;50.958;10.994;2023-02-13T02:10:21;100627.47;;;4.40;100.00
29907;BME280;16776;50.958;10.994;2023-02-13T02:12:51;100624.94;;;4.41;100.00
29907;BME280;16776;50.958;10.994;2023-02-13T02:15:20;100630.72;;;4.34;100.00
29907;BME280;16776;50.958;10.994;2023-02-13T02:17:46;100633.97;;;4.30;100.00
29907;BME280;16776;50.958;10.994;2023-02-13T02:20:24;100627.19;;;4.31;100.00
29907;BME280;16776;50.958;10.994;2023-02-13T02:23:38;100631.47;;;4.32;100.00
29907;BME280;16776;50.958;10.994;2023-02-13T02:26:35;100626.94;;;4.23;100.00
29907;BME280;16776;50.958;10.994;2023-02-13T02:29:45;100628.53;;;4.19;100.00
29907;BME280;16776;50.958;10.994;2023-02-13T02:32:24;100632.59;;;4.13;100.00
29907;BME280;16776;50.958;10.994;2023-02-13T02:35:00;100626.56;;;4.11;100.00
29907;BME280;16776;50.958;10.994;2023-02-13T02:37:41;100625.69;;;4.10;100.00
29907;BME280;16776;50.958;10.994;2023-02-13T02:40:19;100626.56;;;4.11;100.00
29907;BME280;16776;50.958;10.994;2023-02-13T02:42:59;100623.16;;;4.10;100.00
29907;BME280;16776;50.958;10.994;2023-02-13T02:45:33;100616.28;;;4.08;100.00
29907;BME280;16776;50.958;10.994;2023-02-13T02:48:08;100610.25;;;4.06;100.00
29907;BME280;16776;50.958;10.994;2023-02-13T02:50:58;100609.22;;;3.99;100.00
29907;BME280;16776;50.958;10.994;2023-02-13T02:53:31;100609.94;;;3.95;100.00
29907;BME280;16776;50.958;10.994;2023-02-13T02:56:03;100608.09;;;3.91;100.00
29907;BME280;16776;50.958;10.994;2023-02-13T02:58:36;100605.47;;;3.88;100.00
29907;BME280;16776;50.958;10.994;2023-02-13T03:01:23;100592.22;;;3.73;100.00
29907;BME280;16776;50.958;10.994;2023-02-13T03:04:14;100602.59;;;3.79;100.00
29907;BME280;16776;50.958;10.994;2023-02-13T03:07:03;100605.69;;;3.69;100.00
29907;BME280;16776;50.958;10.994;2023-02-13T03:09:35;100603.84;;;3.65;100.00
29907;BME280;16776;50.958;10.994;2023-02-13T03:12:22;100605.28;;;3.57;100.00
29907;BME280;16776;50.958;10.994;2023-02-13T03:15:08;100601.69;;;3.52;100.00
29907;BME280;16776;50.958;10.994;2023-02-13T03:17:34;100583.25;;;3.33;100.00
29907;BME280;16776;50.958;10.994;2023-02-13T03:20:29;100608.31;;;3.47;100.00
29907;BME280;16776;50.958;10.994;2023-02-13T03:23:16;100605.50;;;3.37;100.00
29907;BME280;16776;50.958;10.994;2023-02-13T03:26:06;100607.22;;;3.38;100.00
29907;BME280;16776;50.958;10.994;2023-02-13T03:28:43;100610.22;;;3.28;100.00
29907;BME280;16776;50.958;10.994;2023-02-13T03:31:35;100602.28;;;3.19;100.00
29907;BME280;16776;50.958;10.994;2023-02-13T03:34:05;100616.69;;;3.19;100.00
29907;BME280;16776;50.958;10.994;2023-02-13T03:36:44;100617.56;;;3.19;100.00
29907;BME280;16776;50.958;10.994;2023-02-13T03:39:37;100618.16;;;3.12;100.00
29907;BME280;16776;50.958;10.994;2023-02-13T03:42:14;100613.66;;;3.05;100.00
29907;BME280;16776;50.958;10.994;2023-02-13T03:44:47;100621.25;;;3.03;100.00
29907;BME280;16776;50.958;10.994;2023-02-13T03:47:36;100616.81;;;2.98;100.00
29907;BME280;16776;50.958;10.994;2023-02-13T03:50:05;100609.03;;;2.95;100.00
29907;BME280;16776;50.958;10.994;2023-02-13T03:52:38;100614.31;;;2.99;100.00
29907;BME280;16776;50.958;10.994;2023-02-13T03:55:08;100620.97;;;2.96;100.00
29907;BME280;16776;50.958;10.994;2023-02-13T03:57:56;100616.69;;;2.95;100.00
29907;BME280;16776;50.958;10.994;2023-02-13T04:00:46;100617.47;;;2.94;100.00
29907;BME280;16776;50.958;10.994;2023-02-13T04:03:18;100619.19;;;2.93;100.00
29907;BME280;16776;50.958;10.994;2023-02-13T04:05:50;100616.53;;;2.90;100.00
29907;BME280;16776;50.958;10.994;2023-02-13T04:08:19;100616.47;;;2.89;100.00
29907;BME280;16776;50.958;10.994;2023-02-13T04:10:49;100580.31;;;2.74;100.00
29907;BME280;16776;50.958;10.994;2023-02-13T04:13:21;100602.94;;;2.90;100.00
29907;BME280;16776;50.958;10.994;2023-02-13T04:15:54;100604.53;;;2.88;100.00
29907;BME280;16776;50.958;10.994;2023-02-13T04:18:24;100607.94;;;2.87;100.00
29907;BME280;16776;50.958;10.994;2023-02-13T04:20:52;100608.59;;;2.83;100.00
29907;BME280;16776;50.958;10.994;2023-02-13T04:23:20;100607.00;;;2.85;100.00
29907;BME280;16776;50.958;10.994;2023-02-13T04:25:49;100608.66;;;2.84;100.00
29907;BME280;16776;50.958;10.994;2023-02-13T04:28:17;100610.28;;;2.82;100.00
29907;BME280;16776;50.958;10.994;2023-02-13T04:30:44;100613.69;;;2.83;100.00
29907;BME280;16776;50.958;10.994;2023-02-13T04:33:10;100606.06;;;2.83;100.00
29907;BME280;16776;50.958;10.994;2023-02-13T04:35:37;100612.09;;;2.85;100.00
29907;BME280;16776;50.958;10.994;2023-02-13T04:38:03;100615.44;;;2.84;100.00
29907;BME280;16776;50.958;10.994;2023-02-13T04:40:32;100613.91;;;2.89;100.00
29907;BME280;16776;50.958;10.994;2023-02-13T04:42:58;100618.94;;;2.87;100.00
29907;BME280;16776;50.958;10.994;2023-02-13T04:45:25;100601.97;;;2.86;100.00
29907;BME280;16776;50.958;10.994;2023-02-13T04:47:52;100600.31;;;2.88;100.00
29907;BME280;16776;50.958;10.994;2023-02-13T04:50:19;100599.56;;;2.91;100.00
29907;BME280;16776;50.958;10.994;2023-02-13T04:52:46;100597.09;;;2.92;100.00
29907;BME280;16776;50.958;10.994;2023-02-13T04:55:13;100596.31;;;2.95;100.00
29907;BME280;16776;50.958;10.994;2023-02-13T04:57:41;100594.75;;;2.98;100.00
29907;BME280;16776;50.958;10.994;2023-02-13T05:00:09;100582.72;;;2.94;100.00
29907;BME280;16776;50.958;10.994;2023-02-13T05:02:37;100603.28;;;2.99;100.00
29907;BME280;16776;50.958;10.994;2023-02-13T05:05:03;100606.72;;;3.01;100.00
29907;BME280;16776;50.958;10.994;2023-02-13T05:07:30;100598.28;;;3.02;100.00
29907;BME280;16776;50.958;10.994;2023-02-13T05:09:57;100590.69;;;3.03;100.00
29907;BME280;16776;50.958;10.994;2023-02-13T05:12:23;100604.34;;;3.05;100.00
29907;BME280;16776;50.958;10.994;2023-02-13T05:14:51;100602.69;;;3.07;100.00
29907;BME280;16776;50.958;10.994;2023-02-13T05:17:18;100605.22;;;3.06;100.00
29907;BME280;16776;50.958;10.994;2023-02-13T05:19:44;100605.22;;;3.06;100.00
29907;BME280;16776;50.958;10.994;2023-02-13T05:22:11;100600.16;;;3.07;100.00
29907;BME280;16776;50.958;10.994;2023-02-13T05:24:55;100607.00;;;3.09;100.00
29907;BME280;16776;50.958;10.994;2023-02-13T05:27:21;100605.31;;;3.09;100.00
29907;BME280;16776;50.958;10.994;2023-02-13T05:29:48;100600.22;;;3.09;100.00
29907;BME280;16776;50.958;10.994;2023-02-13T05:32:16;100598.59;;;3.11;100.00
29907;BME280;16776;50.958;10.994;2023-02-13T05:34:42;100599.41;;;3.10;100.00
29907;BME280;16776;50.958;10.994;2023-02-13T05:37:09;100590.38;;;3.18;100.00
29907;BME280;16776;50.958;10.994;2023-02-13T05:39:36;100599.59;;;3.38;100.00
29907;BME280;16776;50.958;10.994;2023-02-13T05:42:02;100601.09;;;3.59;100.00
29907;BME280;16776;50.958;10.994;2023-02-13T05:44:29;100594.81;;;3.74;100.00
29907;BME280;16776;50.958;10.994;2023-02-13T05:46:56;100586.63;;;3.84;100.00
29907;BME280;16776;50.958;10.994;2023-02-13T05:49:24;100592.91;;;3.94;100.00
29907;BME280;16776;50.958;10.994;2023-02-13T05:51:51;100595.50;;;3.96;100.00
29907;BME280;16776;50.958;10.994;2023-02-13T05:54:17;100592.16;;;3.98;100.00
29907;BME280;16776;50.958;10.994;2023-02-13T05:56:44;100601.56;;;3.99;100.00
29907;BME280;16776;50.958;10.994;2023-02-13T05:59:11;100596.41;;;3.98;100.00
29907;BME280;16776;50.958;10.994;2023-02-13T06:01:37;100604.84;;;3.95;100.00
29907;BME280;16776;50.958;10.994;2023-02-13T06:04:04;100602.19;;;3.92;100.00
29907;BME280;16776;50.958;10.994;2023-02-13T06:06:32;100606.34;;;3.90;100.00
29907;BME280;16776;50.958;10.994;2023-02-13T06:08:58;100606.16;;;3.84;100.00
29907;BME280;16776;50.958;10.994;2023-02-13T06:11:25;100599.25;;;3.80;100.00
29907;BME280;16776;50.958;10.994;2023-02-13T06:13:52;100604.22;;;3.77;100.00
29907;BME280;16776;50.958;10.994;2023-02-13T06:16:21;100608.50;;;3.76;100.00
29907;BME280;16776;50.958;10.994;2023-02-13T06:18:47;100606.56;;;3.69;100.00
29907;BME280;16776;50.958;10.994;2023-02-13T06:21:14;100619.13;;;3.65;100.00
29907;BME280;16776;50.958;10.994;2023-02-13T06:23:42;100610.59;;;3.63;100.00
29907;BME280;16776;50.958;10.994;2023-02-13T06:26:09;100611.25;;;3.57;100.00
29907;BME280;16776;50.958;10.994;2023-02-13T06:28:36;100605.97;;;3.53;100.00
29907;BME280;16776;50.958;10.994;2023-02-13T06:31:03;100609.31;;;3.50;100.00
29907;BME280;16776;50.958;10.994;2023-02-13T06:33:30;100621.06;;;3.47;100.00
29907;BME280;16776;50.958;10.994;2023-02-13T06:36:00;100624.41;;;3.44;100.00
29907;BME280;16776;50.958;10.994;2023-02-13T06:38:27;100612.31;;;3.38;100.00
29907;BME280;16776;50.958;10.994;2023-02-13T06:40:58;100617.41;;;3.38;100.00
29907;BME280;16776;50.958;10.994;2023-02-13T06:43:28;100616.19;;;3.29;100.00
29907;BME280;16776;50.958;10.994;2023-02-13T06:45:55;100625.44;;;3.27;100.00
29907;BME280;16776;50.958;10.994;2023-02-13T06:48:22;100627.84;;;3.22;100.00
29907;BME280;16776;50.958;10.994;2023-02-13T06:50:48;100631.91;;;3.17;100.00
29907;BME280;16776;50.958;10.994;2023-02-13T06:53:16;100633.53;;;3.15;100.00
29907;BME280;16776;50.958;10.994;2023-02-13T06:55:43;100635.13;;;3.12;100.00
29907;BME280;16776;50.958;10.994;2023-02-13T06:58:11;100635.84;;;3.09;100.00
29907;BME280;16776;50.958;10.994;2023-02-13T07:00:37;100640.03;;;3.07;100.00
29907;BME280;16776;50.958;10.994;2023-02-13T07:03:05;100644.22;;;3.05;100.00
29907;BME280;16776;50.958;10.994;2023-02-13T07:05:32;100646.69;;;3.03;100.00
29907;BME280;16776;50.958;10.994;2023-02-13T07:07:58;100646.63;;;3.02;100.00
29907;BME280;16776;50.958;10.994;2023-02-13T07:10:25;100640.66;;;3.01;100.00
29907;BME280;16776;50.958;10.994;2023-02-13T07:12:51;100652.50;;;2.99;100.00
29907;BME280;16776;50.958;10.994;2023-02-13T07:15:19;100645.72;;;3.00;100.00
29907;BME280;16776;50.958;10.994;2023-02-13T07:17:46;100647.34;;;2.98;100.00
29907;BME280;16776;50.958;10.994;2023-02-13T07:20:13;100645.66;;;2.98;100.00
29907;BME280;16776;50.958;10.994;2023-02-13T07:22:40;100641.38;;;2.97;100.00
29907;BME280;16776;50.958;10.994;2023-02-13T07:25:06;100641.38;;;2.97;100.00
29907;BME280;16776;50.958;10.994;2023-02-13T07:27:33;100646.41;;;2.96;100.00
29907;BME280;16776;50.958;10.994;2023-02-13T07:30:00;100642.13;;;2.95;100.00
29907;BME280;16776;50.958;10.994;2023-02-13T07:32:28;100645.59;;;2.97;100.00
29907;BME280;16776;50.958;10.994;2023-02-13T07:34:54;100641.31;;;2.96;100.00
29907;BME280;16776;50.958;10.994;2023-02-13T07:37:21;100645.59;;;2.97;100.00
29907;BME280;16776;50.958;10.994;2023-02-13T07:39:47;100644.00;;;2.99;100.00
29907;BME280;16776;50.958;10.994;2023-02-13T07:42:14;100645.75;;;3.01;100.00
29907;BME280;16776;50.958;10.994;2023-02-13T07:44:40;100644.94;;;3.02;100.00
29907;BME280;16776;50.958;10.994;2023-02-13T07:47:07;100648.31;;;3.01;100.00
29907;BME280;16776;50.958;10.994;2023-02-13T07:49:35;100643.34;;;3.04;100.00
29907;BME280;16776;50.958;10.994;2023-02-13T07:52:02;100649.25;;;3.03;100.00
29907;BME280;16776;50.958;10.994;2023-02-13T07:54:29;100650.16;;;3.05;100.00
29907;BME280;16776;50.958;10.994;2023-02-13T07:56:56;100650.25;;;3.09;100.00
29907;BME280;16776;50.958;10.994;2023-02-13T07:59:22;100622.56;;;2.94;100.00
29907;BME280;16776;50.958;10.994;2023-02-13T08:01:49;100644.50;;;3.13;100.00
29907;BME280;16776;50.958;10.994;2023-02-13T08:04:15;100648.75;;;3.14;100.00
29907;BME280;16776;50.958;10.994;2023-02-13T08:06:43;100650.53;;;3.16;100.00
29907;BME280;16776;50.958;10.994;2023-02-13T08:09:19;100644.72;;;3.20;100.00
29907;BME280;16776;50.958;10.994;2023-02-13T08:12:05;100654.81;;;3.17;100.00
29907;BME280;16776;50.958;10.994;2023-02-13T08:14:32;100641.06;;;3.12;100.00
29907;BME280;16776;50.958;10.994;2023-02-13T08:16:59;100650.66;;;3.19;100.00
29907;BME280;16776;50.958;10.994;2023-02-13T08:19:26;100652.38;;;3.20;100.00
29907;BME280;16776;50.958;10.994;2023-02-13T08:21:54;100637.75;;;3.15;100.00
29907;BME280;16776;50.958;10.994;2023-02-13T08:24:21;100653.34;;;3.24;100.00
29907;BME280;16776;50.958;10.994;2023-02-13T08:26:47;100649.16;;;3.26;100.00
29907;BME280;16776;50.958;10.994;2023-02-13T08:29:14;100648.41;;;3.28;100.00
29907;BME280;16776;50.958;10.994;2023-02-13T08:31:40;100649.44;;;3.32;100.00
29907;BME280;16776;50.958;10.994;2023-02-13T08:34:08;100656.25;;;3.33;100.00
29907;BME280;16776;50.958;10.994;2023-02-13T08:36:35;100658.91;;;3.36;100.00
29907;BME280;16776;50.958;10.994;2023-02-13T08:39:03;100650.53;;;3.38;100.00
29907;BME280;16776;50.958;10.994;2023-02-13T08:41:30;100652.19;;;3.38;100.00
29907;BME280;16776;50.958;10.994;2023-02-13T08:43:56;100662.53;;;3.42;100.00
29907;BME280;16776;50.958;10.994;2023-02-13T08:46:23;100663.41;;;3.43;100.00
29907;BME280;16776;50.958;10.994;2023-02-13T08:48:49;100658.38;;;3.44;100.00
29907;BME280;16776;50.958;10.994;2023-02-13T08:51:16;100665.16;;;3.44;100.00
29907;BME280;16776;50.958;10.994;2023-02-13T08:53:42;100664.28;;;3.43;100.00
29907;BME280;16776;50.958;10.994;2023-02-13T08:56:12;100665.16;;;3.45;100.00
29907;BME280;16776;50.958;10.994;2023-02-13T08:58:38;100658.31;;;3.43;100.00
29907;BME280;16776;50.958;10.994;2023-02-13T09:01:06;100660.94;;;3.46;100.00
29907;BME280;16776;50.958;10.994;2023-02-13T09:03:32;100659.31;;;3.48;100.00
29907;BME280;16776;50.958;10.994;2023-02-13T09:06:00;100653.47;;;3.51;100.00
29907;BME280;16776;50.958;10.994;2023-02-13T09:08:27;100659.47;;;3.53;100.00
29907;BME280;16776;50.958;10.994;2023-02-13T09:10:55;100657.84;;;3.55;100.00
29907;BME280;16776;50.958;10.994;2023-02-13T09:13:23;100661.41;;;3.60;100.00
29907;BME280;16776;50.958;10.994;2023-02-13T09:15:50;100660.66;;;3.62;100.00
29907;BME280;16776;50.958;10.994;2023-02-13T09:18:16;100631.44;;;3.51;100.00
29907;BME280;16776;50.958;10.994;2023-02-13T09:20:43;100661.94;;;3.75;100.00
29907;BME280;16776;50.958;10.994;2023-02-13T09:23:10;100653.78;;;3.85;100.00
29907;BME280;16776;50.958;10.994;2023-02-13T09:25:36;100654.16;;;3.97;100.00
29907;BME280;16776;50.958;10.994;2023-02-13T09:28:03;100657.16;;;4.11;100.00
29907;BME280;16776;50.958;10.994;2023-02-13T09:30:31;100656.78;;;4.25;100.00
29907;BME280;16776;50.958;10.994;2023-02-13T09:32:58;100657.97;;;4.37;100.00
29907;BME280;16776;50.958;10.994;2023-02-13T09:35:24;100654.16;;;4.51;100.00
29907;BME280;16776;50.958;10.994;2023-02-13T09:37:51;100652.06;;;4.66;100.00
29907;BME280;16776;50.958;10.994;2023-02-13T09:40:25;100654.34;;;4.85;100.00
29907;BME280;16776;50.958;10.994;2023-02-13T09:43:00;100662.41;;;5.00;100.00
29907;BME280;16776;50.958;10.994;2023-02-13T09:45:31;100669.72;;;5.17;100.00
29907;BME280;16776;50.958;10.994;2023-02-13T09:47:58;100657.28;;;5.29;100.00
29907;BME280;16776;50.958;10.994;2023-02-13T09:50:29;100669.28;;;5.64;100.00
29907;BME280;16776;50.958;10.994;2023-02-13T09:52:58;100670.84;;;5.92;100.00
29907;BME280;16776;50.958;10.994;2023-02-13T09:55:28;100668.25;;;6.26;100.00
29907;BME280;16776;50.958;10.994;2023-02-13T09:58:06;100667.31;;;6.60;100.00
29907;BME280;16776;50.958;10.994;2023-02-13T10:00:39;100667.22;;;6.93;100.00
29907;BME280;16776;50.958;10.994;2023-02-13T10:03:24;100646.31;;;7.16;100.00
29907;BME280;16776;50.958;10.994;2023-02-13T10:06:04;100670.25;;;7.63;100.00
29907;BME280;16776;50.958;10.994;2023-02-13T10:08:48;100666.59;;;8.00;100.00
29907;BME280;16776;50.958;10.994;2023-02-13T10:11:34;100669.78;;;8.35;100.00
29907;BME280;16776;50.958;10.994;2023-02-13T10:14:10;100666.81;;;8.68;100.00
29907;BME280;16776;50.958;10.994;2023-02-13T10:16:42;100667.25;;;9.02;100.00
29907;BME280;16776;50.958;10.994;2023-02-13T10:19:17;100667.59;;;9.31;100.00
29907;BME280;16776;50.958;10.994;2023-02-13T10:21:50;100665.31;;;9.56;100.00
29907;BME280;16776;50.958;10.994;2023-02-13T10:24:27;100666.41;;;9.80;100.00
29907;BME280;16776;50.958;10.994;2023-02-13T10:26:56;100661.38;;;9.91;100.00
29907;BME280;16776;50.958;10.994;2023-02-13T10:29:35;100660.56;;;10.04;100.00
29907;BME280;16776;50.958;10.994;2023-02-13T10:32:26;100658.06;;;10.09;100.00
29907;BME280;16776;50.958;10.994;2023-02-13T10:34:57;100650.31;;;10.07;100.00
29907;BME280;16776;50.958;10.994;2023-02-13T10:37:27;100650.28;;;10.01;100.00
29907;BME280;16776;50.958;10.994;2023-02-13T10:39:54;100651.97;;;9.96;100.00
29907;BME280;16776;50.958;10.994;2023-02-13T10:42:22;100647.63;;;9.92;100.00
29907;BME280;16776;50.958;10.994;2023-02-13T10:45:15;100647.63;;;9.94;100.00
29907;BME280;16776;50.958;10.994;2023-02-13T10:47:57;100627.72;;;9.73;100.00
29907;BME280;16776;50.958;10.994;2023-02-13T10:50:33;100649.19;;;9.73;100.00
29907;BME280;16776;50.958;10.994;2023-02-13T10:53:10;100644.84;;;9.69;100.00
29907;BME280;16776;50.958;10.994;2023-02-13T10:55:54;100643.16;;;9.73;100.00
29907;BME280;16776;50.958;10.994;2023-02-13T10:58:30;100640.63;;;9.76;100.00
29907;BME280;16776;50.958;10.994;2023-02-13T11:01:07;100634.69;;;9.83;100.00
29907;BME280;16776;50.958;10.994;2023-02-13T11:03:36;100631.38;;;9.96;100.00
29907;BME280;16776;50.958;10.994;2023-02-13T11:06:06;100624.59;;;10.12;100.00
29907;BME280;16776;50.958;10.994;2023-02-13T11:08:37;100625.56;;;10.23;100.00
29907;BME280;16776;50.958;10.994;2023-02-13T11:11:28;100623.94;;;10.40;100.00
29907;BME280;16776;50.958;10.994;2023-02-13T11:14:13;100622.28;;;10.51;100.00
29907;BME280;16776;50.958;10.994;2023-02-13T11:16:46;100622.34;;;10.57;100.00
29907;BME280;16776;50.958;10.994;2023-02-13T11:19:20;100625.00;;;10.68;100.00
29907;BME280;16776;50.958;10.994;2023-02-13T11:21:53;100617.25;;;10.76;100.00
29907;BME280;16776;50.958;10.994;2023-02-13T11:24:22;100619.03;;;10.80;100.00
29907;BME280;16776;50.958;10.994;2023-02-13T11:26:51;100602.72;;;10.85;100.00
29907;BME280;16776;50.958;10.994;2023-02-13T11:29:22;100601.03;;;10.98;100.00
29907;BME280;16776;50.958;10.994;2023-02-13T11:32:04;100595.91;;;11.10;100.00
29907;BME280;16776;50.958;10.994;2023-02-13T11:34:34;100592.47;;;11.14;100.00
29907;BME280;16776;50.958;10.994;2023-02-13T11:37:20;100598.53;;;11.28;100.00
29907;BME280;16776;50.958;10.994;2023-02-13T11:39:48;100593.34;;;11.27;100.00
29907;BME280;16776;50.958;10.994;2023-02-13T11:42:18;100589.94;;;11.31;100.00
29907;BME280;16776;50.958;10.994;2023-02-13T11:44:49;100589.09;;;11.38;100.00
29907;BME280;16776;50.958;10.994;2023-02-13T11:47:29;100590.81;;;11.50;100.00
29907;BME280;16776;50.958;10.994;2023-02-13T11:49:59;100588.25;;;11.50;100.00
29907;BME280;16776;50.958;10.994;2023-02-13T11:52:27;100581.34;;;11.49;100.00
29907;BME280;16776;50.958;10.994;2023-02-13T11:54:56;100590.81;;;11.59;100.00
29907;BME280;16776;50.958;10.994;2023-02-13T11:57:28;100586.56;;;11.67;100.00
29907;BME280;16776;50.958;10.994;2023-02-13T11:59:56;100595.16;;;11.69;100.00
29907;BME280;16776;50.958;10.994;2023-02-13T12:02:24;100590.00;;;11.75;100.00
29907;BME280;16776;50.958;10.994;2023-02-13T12:04:52;100590.84;;;11.80;100.00
29907;BME280;16776;50.958;10.994;2023-02-13T12:07:23;100586.53;;;11.87;100.00
29907;BME280;16776;50.958;10.994;2023-02-13T12:09:54;100586.56;;;11.90;100.00
29907;BME280;16776;50.958;10.994;2023-02-13T12:12:26;100585.69;;;11.88;100.00
29907;BME280;16776;50.958;10.994;2023-02-13T12:14:55;100581.38;;;11.85;100.00
29907;BME280;16776;50.958;10.994;2023-02-13T12:17:25;100572.78;;;11.89;100.00
29907;BME280;16776;50.958;10.994;2023-02-13T12:19:53;100568.47;;;11.87;100.00
29907;BME280;16776;50.958;10.994;2023-02-13T12:22:29;100567.59;;;11.98;100.00
29907;BME280;16776;50.958;10.994;2023-02-13T12:28:11;100565.00;;;11.98;100.00
29907;BME280;16776;50.958;10.994;2023-02-13T12:30:59;100539.22;;;11.80;100.00
29907;BME280;16776;50.958;10.994;2023-02-13T12:36:33;100553.84;;;11.96;100.00
29907;BME280;16776;50.958;10.994;2023-02-13T12:39:16;100550.38;;;12.06;100.00
29907;BME280;16776;50.958;10.994;2023-02-13T12:41:50;100546.06;;;12.07;100.00
29907;BME280;16776;50.958;10.994;2023-02-13T12:44:47;100546.03;;;12.17;100.00
29907;BME280;16776;50.958;10.994;2023-02-13T12:47:17;100537.44;;;12.14;100.00
29907;BME280;16776;50.958;10.994;2023-02-13T12:49:59;100541.72;;;12.26;100.00
29907;BME280;16776;50.958;10.994;2023-02-13T12:52:38;100538.25;;;12.25;100.00
29907;BME280;16776;50.958;10.994;2023-02-13T12:55:23;100533.06;;;12.30;100.00
29907;BME280;16776;50.958;10.994;2023-02-13T12:58:05;100531.34;;;12.29;100.00
29907;BME280;16776;50.958;10.994;2023-02-13T13:00:44;100527.06;;;12.28;100.00
29907;BME280;16776;50.958;10.994;2023-02-13T13:03:27;100529.59;;;12.35;100.00
29907;BME280;16776;50.958;10.994;2023-02-13T13:06:09;100533.06;;;12.30;100.00